KEST/EST METAR and TAF weather

Enter ICAO airport designator
Station Type Date Time Source
KEST METAR 2022/01/19 19:52 UTC NOAA

KEST 191952Z AUTO 33019G30KT 10SM CLR M15/M21 A3043 RMK AO2 PK WND 34030/1947 SLP339 T11501206


Station Type Date Time Source
KEST Decoded METAR 2022/01/19 19:52 UTC NOAA

ESTHERVILLE MUNICIPAL AIRPORT , IA, United States (KEST) 43-24N 94-45W 401M
Jan 19, 2022 - 02:52 PM EST / 2022.01.19 1952 UTC
Wind: from the NNW (330 degrees) at 22 MPH (19 KT) gusting to 35 MPH (30 KT):0
Visibility: 10 mile(s):0
Sky conditions: clear
Temperature: 5.0 F (-15.0 C)
Windchill: -16 F (-27 C):2
Dew Point: -5.1 F (-20.6 C)
Relative Humidity: 62%
Pressure (altimeter): 30.43 in. Hg (1030 hPa)
ob: KEST 191952Z AUTO 33019G30KT 10SM CLR M15/M21 A3043 RMK AO2 PK WND 34030/1947 SLP339 T11501206
cycle: 20

Station Type Date Time Source
KEST TAF UTC NOAA

Error!

Example: see airport list